Time;durP1;ratioP1;P1;durP2;ratioP2;P2;SDS_P1;SDS_P2;PMS_P1;PMS_P2;Temp;Humidity;BMP_temperature;BMP_pressure;BME280_temperature;BME280_humidity;BME280_pressure;Samples;Min_cycle;Max_cycle;Signal;HPM_P1;HPM_P2
2023/02/25 00:00:38;;;;;;;18.80;10.80;;;;;;;5.32;78.46;97929.80;131217;1248;107286;-77
2023/02/25 00:03:54;;;;;;;18.30;11.30;;;;;;;5.31;78.52;97930.30;131189;1254;107514;-79
2023/02/25 00:07:00;;;;;;;20.40;11.70;;;;;;;5.29;78.62;97923.43;131252;1263;106533;-78
2023/02/25 00:10:06;;;;;;;20.80;11.70;;;;;;;5.28;78.75;97918.42;131223;1254;107612;-79
2023/02/25 00:13:12;;;;;;;20.50;10.70;;;;;;;5.25;78.82;97914.73;131237;1253;107542;-78
2023/02/25 00:16:18;;;;;;;17.90;10.40;;;;;;;5.21;78.72;97913.34;131262;1254;107589;-78
2023/02/25 00:19:24;;;;;;;16.20;9.10;;;;;;;5.18;78.64;97911.77;131168;1254;107409;-78
2023/02/25 00:22:29;;;;;;;16.20;9.50;;;;;;;5.16;78.83;97904.94;131161;1252;108810;-79
2023/02/25 00:25:35;;;;;;;15.50;8.70;;;;;;;5.14;78.81;97904.45;131236;1252;107526;-79
2023/02/25 00:28:41;;;;;;;15.00;9.00;;;;;;;5.16;78.88;97905.58;131217;1253;107436;-78
2023/02/25 00:31:47;;;;;;;15.90;9.60;;;;;;;5.19;78.69;97903.30;131015;1248;107552;-79
2023/02/25 00:34:54;;;;;;;16.40;9.40;;;;;;;5.20;78.89;97900.23;131336;1252;107515;-78
2023/02/25 00:37:59;;;;;;;16.80;9.70;;;;;;;5.20;78.73;97896.12;131184;1254;107645;-78
2023/02/25 00:41:10;;;;;;;14.60;9.40;;;;;;;5.21;78.75;97895.52;131154;1248;107465;-77
2023/02/25 00:44:16;;;;;;;17.00;9.60;;;;;;;5.19;79.05;97893.35;131193;1252;107479;-79
2023/02/25 00:47:21;;;;;;;15.50;8.70;;;;;;;5.18;78.84;97882.65;131308;1253;107229;-79
2023/02/25 00:50:27;;;;;;;16.00;9.30;;;;;;;5.16;78.93;97878.10;131320;1258;107283;-80
2023/02/25 00:53:33;;;;;;;18.00;9.10;;;;;;;5.15;79.14;97870.14;131144;1248;107233;-79
2023/02/25 00:56:38;;;;;;;14.90;8.60;;;;;;;5.11;79.00;97863.27;131327;1252;106069;-79
2023/02/25 00:59:44;;;;;;;13.30;7.60;;;;;;;5.12;79.20;97856.33;131282;1253;107504;-78
2023/02/25 01:02:51;;;;;;;15.10;9.10;;;;;;;5.15;79.21;97853.69;131379;1253;107476;-78
2023/02/25 01:05:57;;;;;;;14.90;9.00;;;;;;;5.18;79.08;97850.90;131247;1248;107282;-76
2023/02/25 01:09:12;;;;;;;14.90;9.50;;;;;;;5.21;79.17;97847.57;131181;1252;107594;-78
2023/02/25 01:12:18;;;;;;;16.70;9.40;;;;;;;5.21;79.19;97838.54;131116;1253;107502;-76
2023/02/25 01:15:24;;;;;;;13.20;8.40;;;;;;;5.23;79.20;97835.71;131127;1248;107515;-76
2023/02/25 01:18:31;;;;;;;16.30;9.40;;;;;;;5.22;79.10;97828.79;131132;1253;107565;-79
2023/02/25 01:21:39;;;;;;;17.40;9.50;;;;;;;5.18;79.31;97823.05;131269;1253;107528;-78
2023/02/25 01:24:45;;;;;;;15.10;10.00;;;;;;;5.13;79.36;97820.60;131332;1248;107502;-78
2023/02/25 01:27:53;;;;;;;18.60;10.10;;;;;;;5.09;79.38;97820.66;131328;1252;106715;-78
2023/02/25 01:31:00;;;;;;;15.30;9.00;;;;;;;5.04;79.45;97808.58;131107;1254;107425;-78
2023/02/25 01:34:08;;;;;;;15.40;8.80;;;;;;;5.02;79.53;97807.90;131176;1248;107400;-79
2023/02/25 01:37:14;;;;;;;16.20;9.40;;;;;;;5.05;79.47;97807.61;131212;1248;106868;-78
2023/02/25 01:40:20;;;;;;;17.70;9.60;;;;;;;5.11;79.60;97803.37;131251;1261;107554;-78
2023/02/25 01:43:27;;;;;;;17.30;10.00;;;;;;;5.14;79.65;97802.14;131115;1253;107337;-79
2023/02/25 01:46:33;;;;;;;16.00;10.20;;;;;;;5.15;79.52;97790.48;131166;1248;107346;-78
2023/02/25 01:49:43;;;;;;;15.70;10.00;;;;;;;5.15;79.69;97783.25;131131;1254;107428;-78
2023/02/25 01:52:48;;;;;;;13.80;9.30;;;;;;;5.15;79.55;97779.15;131196;1248;107335;-78
2023/02/25 01:55:56;;;;;;;17.20;10.50;;;;;;;5.14;79.50;97770.70;131162;1248;107528;-78
2023/02/25 01:59:02;;;;;;;17.00;9.70;;;;;;;5.10;79.69;97771.46;131199;1263;107551;-77
2023/02/25 02:02:09;;;;;;;19.30;9.80;;;;;;;5.06;79.63;97771.33;131359;1254;107499;-77
2023/02/25 02:05:15;;;;;;;15.50;9.10;;;;;;;5.07;79.78;97768.64;131170;1264;107665;-78
2023/02/25 02:08:22;;;;;;;17.10;10.00;;;;;;;5.10;79.83;97769.64;131300;1248;107534;-76
2023/02/25 02:11:27;;;;;;;16.30;9.90;;;;;;;5.13;79.79;97768.10;131207;1254;107539;-76
2023/02/25 02:14:36;;;;;;;18.00;10.40;;;;;;;5.15;79.76;97762.79;131152;1253;107509;-78
2023/02/25 02:17:47;;;;;;;17.90;10.70;;;;;;;5.16;79.79;97755.05;131139;1248;107406;-78
2023/02/25 02:21:10;;;;;;;17.70;11.50;;;;;;;5.16;79.93;97751.61;131287;1253;107541;-78
2023/02/25 02:24:39;;;;;;;16.50;10.80;;;;;;;5.13;79.58;97748.25;131362;1252;107506;-79
2023/02/25 02:28:11;;;;;;;17.70;10.80;;;;;;;5.06;79.75;97747.25;131131;1254;107511;-79
2023/02/25 02:31:30;;;;;;;17.60;9.70;;;;;;;5.03;79.94;97741.55;131428;1255;107565;-77
2023/02/25 02:34:48;;;;;;;14.10;9.20;;;;;;;5.03;80.04;97742.81;131262;1264;107342;-78
2023/02/25 02:38:07;;;;;;;15.50;9.20;;;;;;;5.05;80.04;97748.51;131143;1254;107566;-79
2023/02/25 02:41:27;;;;;;;15.80;10.00;;;;;;;5.12;80.05;97737.71;130947;1248;235212;-79
2023/02/25 02:44:39;;;;;;;20.60;11.30;;;;;;;5.18;79.91;97736.04;131137;1248;107389;-78
2023/02/25 02:47:50;;;;;;;19.90;11.20;;;;;;;5.20;79.78;97731.76;131061;1255;107620;-78
2023/02/25 02:51:00;;;;;;;16.50;10.90;;;;;;;5.20;79.80;97729.52;131019;1254;108621;-79
2023/02/25 02:54:09;;;;;;;16.20;10.90;;;;;;;5.16;79.85;97727.45;131103;1248;107492;-79
2023/02/25 02:57:19;;;;;;;18.10;12.70;;;;;;;5.08;79.54;97724.43;131144;1252;107549;-79
2023/02/25 03:00:30;;;;;;;16.30;10.80;;;;;;;5.02;79.70;97720.00;131167;1254;107819;-79
2023/02/25 03:03:40;;;;;;;14.70;10.50;;;;;;;4.97;79.68;97722.89;131268;1250;107534;-79
2023/02/25 03:06:50;;;;;;;17.50;11.60;;;;;;;4.89;79.83;97722.10;131295;1251;106277;-78
2023/02/25 03:10:01;;;;;;;16.20;10.80;;;;;;;4.74;79.85;97728.21;131068;1254;108713;-78
2023/02/25 03:13:10;;;;;;;14.40;9.70;;;;;;;4.64;80.04;97728.09;131338;1252;107651;-77
2023/02/25 03:16:24;;;;;;;12.10;8.90;;;;;;;4.62;80.22;97724.83;131428;1254;107554;-78
2023/02/25 03:19:37;;;;;;;13.70;10.10;;;;;;;4.53;79.91;97727.08;131029;1248;108661;-78
2023/02/25 03:22:46;;;;;;;14.30;10.10;;;;;;;4.49;80.04;97727.17;131227;1248;106446;-79
2023/02/25 03:25:55;;;;;;;16.40;10.30;;;;;;;4.41;80.19;97727.63;131291;1252;106264;-80
2023/02/25 03:29:01;;;;;;;15.80;9.90;;;;;;;4.26;80.23;97734.88;131221;1252;106024;-78
2023/02/25 03:32:14;;;;;;;15.20;10.30;;;;;;;4.16;80.36;97733.97;131212;1248;107524;-78
2023/02/25 03:35:25;;;;;;;16.50;10.20;;;;;;;4.15;80.59;97741.34;131178;1254;107518;-79
2023/02/25 03:38:35;;;;;;;12.70;9.20;;;;;;;4.08;80.64;97738.93;131378;1253;107480;-77
2023/02/25 03:41:45;;;;;;;11.80;7.90;;;;;;;4.05;80.68;97737.13;131225;1264;107291;-78
2023/02/25 03:44:54;;;;;;;13.60;9.80;;;;;;;4.07;80.62;97742.73;131121;1255;106749;-79
2023/02/25 03:48:02;;;;;;;11.70;8.00;;;;;;;4.10;80.76;97743.11;131144;1252;107559;-78
2023/02/25 03:51:09;;;;;;;11.00;8.20;;;;;;;4.14;80.47;97747.58;131188;1254;107537;-77
2023/02/25 03:54:15;;;;;;;14.20;10.00;;;;;;;4.13;80.59;97748.37;131289;1248;107439;-78
2023/02/25 03:57:24;;;;;;;14.10;10.30;;;;;;;4.15;80.76;97749.45;131229;1248;107677;-78
2023/02/25 04:00:34;;;;;;;13.70;9.70;;;;;;;4.10;80.70;97751.92;131110;1254;107495;-77
2023/02/25 04:03:39;;;;;;;12.30;8.00;;;;;;;4.03;80.64;97752.55;131161;1253;107542;-78
2023/02/25 04:06:46;;;;;;;11.80;8.00;;;;;;;4.03;80.75;97759.40;131121;1248;107530;-77
2023/02/25 04:09:52;;;;;;;20.40;13.10;;;;;;;4.04;80.56;97758.73;131436;1254;107516;-78
2023/02/25 04:12:58;;;;;;;70.80;40.70;;;;;;;4.09;80.74;97761.20;131254;1248;106669;-78
2023/02/25 04:16:04;;;;;;;58.40;25.20;;;;;;;4.15;80.62;97761.31;131123;1254;109347;-79
2023/02/25 04:19:09;;;;;;;189.30;73.30;;;;;;;4.17;80.51;97760.66;131166;1250;107471;-78
2023/02/25 04:22:15;;;;;;;30.10;14.50;;;;;;;4.12;80.45;97761.88;131056;1248;107426;-78
2023/02/25 04:25:21;;;;;;;108.60;50.30;;;;;;;4.05;80.48;97760.62;131297;1252;107534;-78
2023/02/25 04:28:26;;;;;;;64.50;29.70;;;;;;;4.01;80.54;97761.00;131416;1254;107534;-78
2023/02/25 04:31:32;;;;;;;39.40;19.90;;;;;;;3.96;80.59;97758.35;131237;1252;109260;-77
2023/02/25 04:34:38;;;;;;;57.20;23.50;;;;;;;3.89;80.35;97752.56;131359;1248;107558;-78
2023/02/25 04:37:44;;;;;;;52.90;25.30;;;;;;;3.81;80.62;97751.46;131103;1255;107489;-78
2023/02/25 04:40:52;;;;;;;55.30;25.30;;;;;;;3.83;80.90;97748.29;131189;1248;107268;-79
2023/02/25 04:43:58;;;;;;;110.60;43.90;;;;;;;3.89;80.86;97742.66;131273;1252;107487;-79
2023/02/25 04:47:03;;;;;;;56.10;35.60;;;;;;;3.95;80.76;97742.34;131347;1253;107510;-78
2023/02/25 04:50:12;;;;;;;100.00;55.10;;;;;;;3.96;80.63;97738.41;131145;1248;107459;-78
2023/02/25 04:53:17;;;;;;;30.40;22.10;;;;;;;3.92;80.60;97737.52;131383;1251;106637;-80
2023/02/25 04:56:23;;;;;;;77.90;54.90;;;;;;;3.92;80.49;97732.44;131373;1252;107494;-77
2023/02/25 04:59:28;;;;;;;58.70;34.50;;;;;;;3.92;80.66;97732.09;131402;1252;107482;-79
2023/02/25 05:02:35;;;;;;;330.50;156.30;;;;;;;3.88;80.63;97727.66;131393;1253;107465;-77
2023/02/25 05:05:40;;;;;;;118.50;59.10;;;;;;;3.84;80.78;97725.41;131263;1252;107539;-78
2023/02/25 05:08:46;;;;;;;147.40;77.00;;;;;;;3.82;80.75;97722.66;131382;1252;107429;-76
2023/02/25 05:11:51;;;;;;;15.70;10.30;;;;;;;3.85;80.68;97724.67;131283;1250;107512;-78
2023/02/25 05:14:57;;;;;;;15.20;10.30;;;;;;;3.87;80.96;97718.98;131112;1257;108342;-78
2023/02/25 05:18:03;;;;;;;51.50;29.70;;;;;;;3.90;80.95;97720.23;131249;1253;105460;-78
2023/02/25 05:21:12;;;;;;;108.50;49.90;;;;;;;3.90;81.00;97718.54;131174;1248;107461;-78
2023/02/25 05:24:22;;;;;;;225.30;101.90;;;;;;;3.91;81.07;97717.48;131269;1254;107493;-79
2023/02/25 05:27:27;;;;;;;312.00;148.10;;;;;;;3.92;80.87;97716.61;131263;1248;107364;-79
2023/02/25 05:30:33;;;;;;;92.70;50.50;;;;;;;3.91;81.07;97713.16;131240;1248;107399;-78
2023/02/25 05:33:40;;;;;;;17.60;11.40;;;;;;;3.91;81.12;97711.48;131084;1251;107587;-78
2023/02/25 05:36:46;;;;;;;12.90;8.90;;;;;;;3.90;81.12;97708.19;131097;1255;107383;-77
2023/02/25 05:39:52;;;;;;;12.50;8.70;;;;;;;3.88;81.23;97709.52;131380;1252;107406;-77
2023/02/25 05:42:57;;;;;;;36.70;26.10;;;;;;;3.93;81.33;97710.76;131088;1248;107243;-76
2023/02/25 05:46:03;;;;;;;50.60;32.50;;;;;;;4.01;81.48;97714.63;131209;1252;107501;-78
2023/02/25 05:49:10;;;;;;;61.20;36.70;;;;;;;4.06;81.33;97714.66;131137;1248;107535;-78
2023/02/25 05:52:16;;;;;;;58.40;34.00;;;;;;;4.10;81.27;97719.17;131157;1248;107465;-78
2023/02/25 05:55:23;;;;;;;81.00;46.90;;;;;;;4.11;81.17;97715.40;131126;1248;107627;-77
2023/02/25 05:58:28;;;;;;;40.80;25.20;;;;;;;4.09;81.30;97716.70;131297;1252;106135;-78
2023/02/25 06:01:34;;;;;;;29.70;18.50;;;;;;;4.12;81.40;97715.66;131245;1253;106694;-78
2023/02/25 06:04:40;;;;;;;26.90;19.70;;;;;;;4.13;81.45;97714.83;131369;1252;107486;-79
2023/02/25 06:07:45;;;;;;;13.80;9.40;;;;;;;4.13;81.56;97715.97;131210;1253;107796;-78
2023/02/25 06:10:51;;;;;;;13.20;9.60;;;;;;;4.14;81.38;97718.18;131261;1252;107551;-78
2023/02/25 06:13:58;;;;;;;52.80;34.20;;;;;;;4.20;81.66;97716.33;131215;1252;107544;-76
2023/02/25 06:17:04;;;;;;;139.50;82.40;;;;;;;4.25;81.59;97719.03;131390;1252;107519;-76
2023/02/25 06:20:14;;;;;;;93.60;53.10;;;;;;;4.30;81.57;97716.00;131317;1254;107523;-79
2023/02/25 06:23:19;;;;;;;108.30;61.30;;;;;;;4.34;81.50;97713.86;131322;1248;107345;-78
2023/02/25 06:26:26;;;;;;;220.50;126.20;;;;;;;4.37;81.50;97718.05;131132;1252;105538;-77
2023/02/25 06:29:31;;;;;;;130.30;73.90;;;;;;;4.39;81.43;97710.81;131201;1252;107540;-77
2023/02/25 06:32:37;;;;;;;181.10;89.20;;;;;;;4.38;81.53;97712.11;131134;1252;106012;-78
2023/02/25 06:35:42;;;;;;;102.10;61.40;;;;;;;4.40;81.56;97710.52;131317;1261;107524;-79
2023/02/25 06:38:48;;;;;;;70.70;40.10;;;;;;;4.41;81.55;97712.30;131440;1264;107204;-77
2023/02/25 06:41:54;;;;;;;78.30;46.60;;;;;;;4.44;81.78;97714.95;131444;1248;107465;-76
2023/02/25 06:44:59;;;;;;;67.30;44.40;;;;;;;4.48;81.68;97713.78;131168;1252;107511;-78
2023/02/25 06:48:05;;;;;;;166.20;95.20;;;;;;;4.55;81.67;97713.57;131288;1251;108004;-78
2023/02/25 06:51:11;;;;;;;143.20;94.70;;;;;;;4.59;81.57;97712.17;131301;1251;107386;-79
2023/02/25 06:54:17;;;;;;;118.50;78.90;;;;;;;4.64;81.73;97710.52;131300;1248;107527;-78
2023/02/25 06:57:23;;;;;;;52.90;34.70;;;;;;;4.70;81.87;97709.00;131249;1248;107367;-78
2023/02/25 07:00:28;;;;;;;129.90;81.80;;;;;;;4.75;81.67;97706.88;131193;1254;106565;-79
2023/02/25 07:03:34;;;;;;;234.30;145.60;;;;;;;4.74;81.80;97706.19;131349;1253;106719;-78
2023/02/25 07:06:40;;;;;;;62.40;38.70;;;;;;;4.76;81.74;97713.63;131244;1252;107322;-76
2023/02/25 07:09:45;;;;;;;70.20;42.70;;;;;;;4.82;81.80;97708.30;131362;1263;108422;-77
2023/02/25 07:12:51;;;;;;;91.80;53.50;;;;;;;4.91;81.92;97703.84;131529;1252;107584;-76
2023/02/25 07:15:57;;;;;;;112.20;61.30;;;;;;;4.97;81.76;97705.97;131317;1262;108673;-78
2023/02/25 07:19:03;;;;;;;17.20;11.50;;;;;;;5.05;81.80;97711.41;131283;1251;107620;-77
2023/02/25 07:22:11;;;;;;;12.90;9.00;;;;;;;5.14;81.67;97709.91;131458;1252;106754;-78
2023/02/25 07:25:17;;;;;;;11.20;8.50;;;;;;;5.17;81.33;97709.47;131579;1247;107546;-78
2023/02/25 07:28:23;;;;;;;11.40;7.80;;;;;;;5.20;81.48;97707.73;131398;1247;107395;-78
2023/02/25 07:31:29;;;;;;;12.20;8.20;;;;;;;5.26;81.67;97705.21;131363;1250;107418;-78
2023/02/25 07:34:34;;;;;;;13.10;7.90;;;;;;;5.28;81.28;97710.52;131401;1250;107522;-79
2023/02/25 07:37:40;;;;;;;11.30;8.10;;;;;;;5.33;81.70;97711.25;131394;1252;107430;-79
2023/02/25 07:40:46;;;;;;;12.20;8.10;;;;;;;5.41;81.58;97710.46;131436;1252;107491;-79
2023/02/25 07:43:52;;;;;;;13.70;8.90;;;;;;;5.54;81.66;97710.79;131423;1252;107968;-77
2023/02/25 07:46:57;;;;;;;38.50;29.80;;;;;;;5.66;81.33;97710.93;131314;1251;107525;-77
2023/02/25 07:50:03;;;;;;;18.50;12.50;;;;;;;5.71;81.16;97708.52;131451;1247;107363;-78
2023/02/25 07:53:08;;;;;;;14.80;9.30;;;;;;;5.76;81.54;97705.33;131421;1251;105912;-77
2023/02/25 07:56:14;;;;;;;17.80;12.60;;;;;;;5.81;81.34;97704.98;131528;1254;107206;-79
2023/02/25 07:59:21;;;;;;;24.50;17.40;;;;;;;5.83;80.86;97700.17;131464;1247;107556;-80
2023/02/25 08:02:26;;;;;;;26.10;18.80;;;;;;;5.84;80.75;97699.70;131060;1249;107463;-76
2023/02/25 08:05:35;;;;;;;30.50;20.10;;;;;;;5.85;80.91;97695.50;131024;1252;107267;-76
2023/02/25 08:08:40;;;;;;;24.60;16.90;;;;;;;5.85;80.57;97694.44;131006;1272;108594;-76
2023/02/25 08:11:46;;;;;;;57.60;29.30;;;;;;;5.91;80.29;97691.98;131069;1252;107532;-85
2023/02/25 08:14:52;;;;;;;16.80;10.30;;;;;;;5.96;80.73;97693.36;131284;1252;107492;-86
2023/02/25 08:17:58;;;;;;;49.30;30.30;;;;;;;6.07;80.38;97698.59;131492;1251;107515;-86
2023/02/25 08:21:04;;;;;;;22.60;13.30;;;;;;;6.22;80.66;97691.61;131593;1251;107545;-87
2023/02/25 08:24:10;;;;;;;25.90;14.80;;;;;;;6.34;80.32;97693.65;131477;1247;107497;-85
2023/02/25 08:27:15;;;;;;;54.30;28.70;;;;;;;6.37;80.14;97691.92;131628;1250;107639;-84
2023/02/25 08:30:21;;;;;;;32.00;17.30;;;;;;;6.39;79.94;97692.55;131365;1251;107543;-84
2023/02/25 08:33:27;;;;;;;88.70;39.60;;;;;;;6.38;80.00;97692.96;131393;1249;107499;-83
2023/02/25 08:36:35;;;;;;;27.80;14.70;;;;;;;6.24;79.68;97694.13;131559;1248;107507;-84
2023/02/25 08:39:40;;;;;;;32.60;18.50;;;;;;;6.10;79.90;97687.74;131477;1252;107365;-83
2023/02/25 08:42:46;;;;;;;77.20;36.20;;;;;;;6.05;80.22;97689.77;131526;1248;107436;-82
2023/02/25 08:45:51;;;;;;;49.30;31.40;;;;;;;6.08;80.17;97691.51;131283;1252;107590;-82
2023/02/25 08:48:58;;;;;;;25.60;14.70;;;;;;;6.11;80.08;97686.29;131360;1254;107542;-79
2023/02/25 08:52:04;;;;;;;22.80;13.80;;;;;;;6.23;80.35;97683.68;131483;1252;107432;-80
2023/02/25 08:55:13;;;;;;;170.60;105.40;;;;;;;6.35;80.38;97687.98;131434;1247;108765;-81
2023/02/25 08:58:19;;;;;;;51.50;34.70;;;;;;;6.39;80.24;97681.76;131478;1251;108603;-79
2023/02/25 09:01:25;;;;;;;67.70;46.70;;;;;;;6.39;79.99;97684.80;131390;1252;107621;-83
2023/02/25 09:04:30;;;;;;;57.70;39.10;;;;;;;6.44;80.33;97685.75;131588;1248;107636;-81
2023/02/25 09:07:36;;;;;;;77.40;52.80;;;;;;;6.55;80.41;97681.90;131511;1249;107646;-87
2023/02/25 09:10:42;;;;;;;34.10;21.70;;;;;;;6.55;79.87;97684.42;131593;1258;107533;-86
2023/02/25 09:13:48;;;;;;;52.20;35.70;;;;;;;6.45;79.76;97681.13;131254;1252;106779;-85
2023/02/25 09:16:53;;;;;;;67.40;46.70;;;;;;;6.37;79.93;97682.75;131408;1248;107492;-85
2023/02/25 09:20:00;;;;;;;181.40;95.70;;;;;;;6.30;79.92;97682.36;131427;1252;106310;-81
2023/02/25 09:23:05;;;;;;;31.80;19.20;;;;;;;6.15;79.43;97682.79;131444;1251;107429;-85
2023/02/25 09:26:11;;;;;;;150.50;84.90;;;;;;;5.96;79.23;97684.00;131494;1252;106512;-85
2023/02/25 09:29:17;;;;;;;46.80;26.30;;;;;;;5.81;79.54;97684.95;131568;1251;107566;-84
2023/02/25 09:32:23;;;;;;;53.60;28.20;;;;;;;5.69;79.91;97685.78;131515;1250;106296;-82
2023/02/25 09:35:29;;;;;;;15.90;10.10;;;;;;;5.70;80.10;97685.55;131481;1264;107108;-85
2023/02/25 09:38:34;;;;;;;103.50;53.30;;;;;;;5.56;79.40;97705.60;131366;1248;107377;-83
2023/02/25 09:41:48;;;;;;;11.00;6.70;;;;;;;5.36;79.71;97702.16;131409;1252;107528;-79
2023/02/25 09:44:59;;;;;;;91.80;47.00;;;;;;;5.26;79.57;97694.38;131390;1252;107531;-78
2023/02/25 09:48:14;;;;;;;43.00;23.20;;;;;;;5.34;79.91;97692.83;131375;1252;107893;-78
2023/02/25 09:51:23;;;;;;;55.90;29.00;;;;;;;5.44;79.79;97695.31;131350;1247;107524;-77
2023/02/25 09:54:35;;;;;;;36.20;18.50;;;;;;;5.53;79.84;97695.27;131352;1248;107420;-80
2023/02/25 09:57:44;;;;;;;38.40;19.80;;;;;;;5.68;80.02;97692.44;131555;1252;105833;-79
2023/02/25 10:01:01;;;;;;;19.20;12.10;;;;;;;5.87;80.07;97687.05;131577;1247;107449;-82
2023/02/25 10:04:15;;;;;;;24.60;17.60;;;;;;;6.01;79.48;97688.23;131656;1247;106744;-84
2023/02/25 10:07:26;;;;;;;14.60;10.50;;;;;;;6.14;79.40;97687.30;131489;1251;107536;-86
2023/02/25 10:10:41;;;;;;;26.70;16.30;;;;;;;6.29;79.74;97684.16;131465;1252;107547;-88
2023/02/25 10:13:54;;;;;;;44.90;24.10;;;;;;;6.45;79.49;97684.83;131560;1248;107507;-82
2023/02/25 10:17:10;;;;;;;85.00;51.10;;;;;;;6.53;78.69;97684.70;131250;1252;107432;-83
2023/02/25 10:20:47;;;;;;;47.00;29.50;;;;;;;6.41;79.08;97686.99;131326;1252;107414;-85
2023/02/25 10:24:10;;;;;;;62.80;40.40;;;;;;;6.31;78.82;97692.45;131329;1249;107237;-74
2023/02/25 10:27:24;;;;;;;253.60;113.50;;;;;;;6.14;78.67;97689.94;131288;1250;107439;-74
2023/02/25 10:30:37;;;;;;;33.40;17.20;;;;;;;6.00;79.10;97694.11;131235;1252;107434;-76
2023/02/25 10:33:48;;;;;;;14.20;8.50;;;;;;;5.91;78.85;97698.67;131312;1250;107437;-75
2023/02/25 10:36:57;;;;;;;19.00;11.80;;;;;;;5.76;78.87;97699.51;131176;1250;107389;-75
2023/02/25 10:40:09;;;;;;;49.00;27.90;;;;;;;5.64;78.74;97701.55;131430;1247;107476;-74
2023/02/25 10:43:22;;;;;;;50.10;30.20;;;;;;;5.54;78.80;97703.18;131176;1249;107411;-72
2023/02/25 10:46:34;;;;;;;19.80;12.90;;;;;;;5.49;78.69;97707.03;131101;1250;107550;-76
2023/02/25 10:49:39;;;;;;;41.40;23.20;;;;;;;5.42;78.55;97706.19;131053;1250;107244;-75
2023/02/25 10:53:01;;;;;;;38.50;20.90;;;;;;;5.39;79.00;97704.21;131249;1264;107540;-77
2023/02/25 10:56:09;;;;;;;49.20;31.50;;;;;;;5.47;79.07;97708.50;131144;1251;107349;-76
2023/02/25 10:59:28;;;;;;;29.50;17.50;;;;;;;5.54;79.18;97706.11;131220;1252;107352;-75
2023/02/25 11:02:40;;;;;;;46.00;29.00;;;;;;;5.64;79.34;97702.61;131269;1250;108652;-74
2023/02/25 11:05:46;;;;;;;18.20;10.50;;;;;;;5.78;79.19;97700.64;131404;1252;107793;-74
2023/02/25 11:08:53;;;;;;;96.00;54.30;;;;;;;5.81;79.05;97701.55;131165;1253;107233;-75
2023/02/25 11:12:01;;;;;;;19.40;11.20;;;;;;;5.73;78.67;97701.91;131250;1252;106696;-75
2023/02/25 11:15:26;;;;;;;10.80;6.00;;;;;;;5.67;79.29;97697.92;131163;1250;107857;-74
2023/02/25 11:18:33;;;;;;;34.70;21.70;;;;;;;5.72;79.49;97696.36;131127;1250;107403;-75
2023/02/25 11:21:40;;;;;;;30.70;17.10;;;;;;;5.96;79.91;97692.19;131244;1252;107227;-73
2023/02/25 11:24:54;;;;;;;37.70;21.80;;;;;;;6.18;79.31;97696.09;131380;1262;107383;-73
2023/02/25 11:28:00;;;;;;;13.10;7.40;;;;;;;6.32;78.92;97690.92;131175;1252;107246;-74
2023/02/25 11:31:18;;;;;;;69.70;39.00;;;;;;;6.42;78.88;97689.64;131200;1251;107814;-74
2023/02/25 11:34:26;;;;;;;29.10;15.60;;;;;;;6.39;77.84;97689.57;131063;1252;108716;-76
2023/02/25 11:37:39;;;;;;;103.70;56.00;;;;;;;6.45;78.38;97685.80;131047;1252;107478;-74
2023/02/25 11:40:45;;;;;;;29.80;16.10;;;;;;;6.65;78.18;97688.42;131081;1252;107237;-74
2023/02/25 11:43:53;;;;;;;25.00;13.90;;;;;;;6.81;78.43;97684.52;131071;1250;107390;-75
2023/02/25 11:47:07;;;;;;;5.90;3.60;;;;;;;6.71;76.55;97699.59;131148;1250;107446;-75
2023/02/25 11:50:26;;;;;;;75.80;40.90;;;;;;;6.25;77.04;97704.52;131040;1252;105565;-73
2023/02/25 11:53:43;;;;;;;25.80;15.80;;;;;;;6.07;77.48;97713.21;131097;1252;108630;-76
2023/02/25 11:56:51;;;;;;;11.60;6.70;;;;;;;6.04;77.95;97718.47;131061;1250;107450;-75
2023/02/25 12:00:10;;;;;;;5.40;3.40;;;;;;;5.91;77.45;97717.45;131178;1263;107437;-74
2023/02/25 12:03:43;;;;;;;12.90;5.60;;;;;;;5.59;77.99;97720.33;131346;1247;107215;-77
2023/02/25 12:07:20;;;;;;;5.90;4.00;;;;;;;5.40;78.08;97723.16;131376;1250;107368;-76
2023/02/25 12:10:59;;;;;;;13.90;9.60;;;;;;;5.24;79.01;97721.85;131403;1248;107278;-74
2023/02/25 12:14:20;;;;;;;10.40;5.80;;;;;;;5.37;79.17;97726.63;131299;1250;107544;-75
2023/02/25 12:18:05;;;;;;;6.80;5.20;;;;;;;5.45;78.64;97724.17;131266;1252;107257;-74
2023/02/25 12:21:43;;;;;;;10.00;6.20;;;;;;;5.28;77.59;97729.02;131053;1257;108519;-74
2023/02/25 12:25:12;;;;;;;23.80;15.60;;;;;;;5.17;78.56;97725.52;130972;1252;107400;-75
2023/02/25 12:28:46;;;;;;;73.80;40.10;;;;;;;5.29;78.57;97721.96;131052;1250;107260;-75
2023/02/25 12:32:24;;;;;;;40.70;24.80;;;;;;;5.45;78.35;97724.30;131306;1250;107375;-74
2023/02/25 12:35:55;;;;;;;21.20;13.90;;;;;;;5.57;78.49;97719.54;131394;1250;107650;-74
2023/02/25 12:39:19;;;;;;;15.80;12.30;;;;;;;5.64;78.17;97725.37;131266;1250;107368;-78
2023/02/25 12:42:54;;;;;;;9.40;7.20;;;;;;;5.69;78.09;97722.33;131413;1252;107326;-77
2023/02/25 12:46:34;;;;;;;11.70;8.20;;;;;;;5.83;78.14;97726.45;131228;1252;106403;-78
2023/02/25 12:50:03;;;;;;;17.10;10.90;;;;;;;6.02;78.30;97729.03;131170;1252;108642;-75
2023/02/25 12:53:24;;;;;;;11.80;8.60;;;;;;;6.11;77.98;97730.77;131280;1252;107505;-73
2023/02/25 12:56:57;;;;;;;4.60;2.40;;;;;;;6.00;77.27;97738.16;131262;1259;107227;-79
2023/02/25 13:00:26;;;;;;;3.30;2.40;;;;;;;5.57;75.95;97757.30;131218;1250;107578;-75
2023/02/25 13:03:48;;;;;;;180.40;64.40;;;;;;;5.03;76.97;97762.20;131279;1253;108136;-74
2023/02/25 13:07:13;;;;;;;;;;;;;;;4.80;77.48;97779.88;131437;1252;107563;-74
2023/02/25 13:10:46;;;;;;;9.30;4.00;;;;;;;4.60;78.16;97779.53;131439;1252;107506;-78
2023/02/25 13:14:18;;;;;;;7.80;5.50;;;;;;;4.64;78.74;97778.84;131352;1247;107631;-75
2023/02/25 13:17:36;;;;;;;5.20;2.80;;;;;;;4.67;78.54;97780.23;131368;1253;107416;-74
2023/02/25 13:20:56;;;;;;;4.70;3.20;;;;;;;4.58;78.51;97789.21;131270;1252;107412;-74
2023/02/25 13:24:26;;;;;;;3.30;2.50;;;;;;;4.38;79.11;97791.82;131436;1252;107237;-75
2023/02/25 13:28:00;;;;;;;10.60;6.70;;;;;;;4.31;79.34;97787.56;131405;1253;107215;-74
2023/02/25 13:31:16;;;;;;;31.70;23.30;;;;;;;4.41;79.46;97792.59;131191;1250;107372;-75
2023/02/25 13:34:37;;;;;;;15.40;10.40;;;;;;;4.64;79.83;97796.46;131399;1252;105506;-77
2023/02/25 13:37:53;;;;;;;28.20;15.10;;;;;;;4.77;79.48;97799.70;131203;1253;107504;-77
2023/02/25 13:41:16;;;;;;;44.00;28.30;;;;;;;4.65;79.57;97816.46;131270;1251;107344;-76
2023/02/25 13:44:38;;;;;;;50.50;31.90;;;;;;;4.65;79.85;97815.41;131369;1253;107498;-75
2023/02/25 13:47:58;;;;;;;68.10;41.70;;;;;;;4.58;79.73;97829.75;131454;1252;106631;-76
2023/02/25 13:51:16;;;;;;;9.70;5.90;;;;;;;4.48;80.00;97834.40;131482;1252;107603;-76
2023/02/25 13:54:40;;;;;;;13.60;8.80;;;;;;;4.33;80.34;97831.60;131493;1252;107594;-75
2023/02/25 13:58:02;;;;;;;17.90;10.60;;;;;;;4.40;80.52;97835.00;131540;1252;107510;-74
2023/02/25 14:01:36;;;;;;;6.90;4.50;;;;;;;4.46;80.65;97839.20;131456;1252;107436;-73
2023/02/25 14:05:03;;;;;;;11.40;6.30;;;;;;;4.44;80.92;97840.70;131287;1260;108759;-75
2023/02/25 14:08:32;;;;;;;13.20;8.90;;;;;;;4.55;81.02;97848.59;131314;1248;107446;-75
2023/02/25 14:11:51;;;;;;;14.40;9.80;;;;;;;4.60;81.06;97852.98;131457;1247;108571;-73
2023/02/25 14:15:35;;;;;;;5.00;3.80;;;;;;;4.61;80.69;97856.38;131458;1253;108078;-74
2023/02/25 14:18:56;;;;;;;12.10;8.40;;;;;;;4.52;81.22;97856.13;131192;1254;107394;-75
2023/02/25 14:22:25;;;;;;;24.00;13.10;;;;;;;4.48;80.78;97861.26;131228;1252;107364;-75
2023/02/25 14:25:57;;;;;;;4.70;3.70;;;;;;;4.50;81.03;97867.30;131443;1248;107216;-73
2023/02/25 14:29:18;;;;;;;15.10;11.40;;;;;;;4.48;80.72;97867.30;131526;1253;107520;-74
2023/02/25 14:32:37;;;;;;;5.90;4.40;;;;;;;4.58;80.78;97877.05;131562;1255;108526;-75